sensor_id;sensor_type;location;lat;lon;timestamp;pressure;altitude;pressure_sealevel;temperature;humidity
43681;BME280;29281;50.356;30.894;2023-05-17T00:00:58;100186.33;;;17.92;56.48
43681;BME280;29281;50.356;30.894;2023-05-17T00:02:01;100182.80;;;17.92;56.31
43681;BME280;29281;50.356;30.894;2023-05-17T00:03:04;100192.16;;;17.88;56.12
43681;BME280;29281;50.356;30.894;2023-05-17T00:04:08;100187.18;;;17.93;56.87
43681;BME280;29281;50.356;30.894;2023-05-17T00:05:13;100184.79;;;17.90;56.81
43681;BME280;29281;50.356;30.894;2023-05-17T00:06:17;100192.11;;;17.98;56.80
43681;BME280;29281;50.356;30.894;2023-05-17T00:07:22;100185.89;;;17.97;56.54
43681;BME280;29281;50.356;30.894;2023-05-17T00:08:25;100186.03;;;17.96;56.59
43681;BME280;29281;50.356;30.894;2023-05-17T00:09:29;100185.48;;;17.92;56.62
43681;BME280;29281;50.356;30.894;2023-05-17T00:10:32;100183.09;;;17.89;56.77
43681;BME280;29281;50.356;30.894;2023-05-17T00:11:35;100182.95;;;17.90;56.91
43681;BME280;29281;50.356;30.894;2023-05-17T00:12:38;100191.86;;;17.91;56.83
43681;BME280;29281;50.356;30.894;2023-05-17T00:13:45;100189.86;;;17.93;56.76
43681;BME280;29281;50.356;30.894;2023-05-17T00:14:49;100187.47;;;17.90;56.72
43681;BME280;29281;50.356;30.894;2023-05-17T00:15:55;100191.62;;;17.84;56.67
43681;BME280;29281;50.356;30.894;2023-05-17T00:16:59;100182.87;;;17.82;56.83
43681;BME280;29281;50.356;30.894;2023-05-17T00:18:03;100183.72;;;17.83;56.69
43681;BME280;29281;50.356;30.894;2023-05-17T00:19:06;100189.94;;;17.83;56.83
43681;BME280;29281;50.356;30.894;2023-05-17T00:20:10;100189.94;;;17.83;57.18
43681;BME280;29281;50.356;30.894;2023-05-17T00:21:14;100190.78;;;17.84;56.87
43681;BME280;29281;50.356;30.894;2023-05-17T00:22:20;100187.25;;;17.83;56.84
43681;BME280;29281;50.356;30.894;2023-05-17T00:23:24;100196.75;;;17.78;57.36
43681;BME280;29281;50.356;30.894;2023-05-17T00:24:27;100189.83;;;17.75;57.27
43681;BME280;29281;50.356;30.894;2023-05-17T00:25:31;100192.08;;;17.80;57.12
43681;BME280;29281;50.356;30.894;2023-05-17T00:26:33;100187.41;;;17.82;57.02
43681;BME280;29281;50.356;30.894;2023-05-17T00:27:36;100187.25;;;17.83;57.19
43681;BME280;29281;50.356;30.894;2023-05-17T00:28:40;100191.78;;;17.83;57.09
43681;BME280;29281;50.356;30.894;2023-05-17T00:29:43;100189.64;;;17.86;56.87
43681;BME280;29281;50.356;30.894;2023-05-17T00:30:47;100196.53;;;17.89;57.09
43681;BME280;29281;50.356;30.894;2023-05-17T00:31:49;100187.80;;;17.87;56.96
43681;BME280;29281;50.356;30.894;2023-05-17T00:32:53;100199.07;;;17.90;57.09
43681;BME280;29281;50.356;30.894;2023-05-17T00:33:57;100192.63;;;17.83;56.99
43681;BME280;29281;50.356;30.894;2023-05-17T00:35:00;100192.33;;;17.86;57.07
43681;BME280;29281;50.356;30.894;2023-05-17T00:36:04;100192.08;;;17.80;57.18
43681;BME280;29281;50.356;30.894;2023-05-17T00:37:12;100185.27;;;17.85;57.52
43681;BME280;29281;50.356;30.894;2023-05-17T00:38:14;100186.95;;;17.86;56.81
43681;BME280;29281;50.356;30.894;2023-05-17T00:39:18;100192.48;;;17.85;57.12
43681;BME280;29281;50.356;30.894;2023-05-17T00:40:21;100193.33;;;17.85;57.24
43681;BME280;29281;50.356;30.894;2023-05-17T00:41:24;100198.14;;;17.82;57.31
43681;BME280;29281;50.356;30.894;2023-05-17T00:42:27;100193.62;;;17.82;57.08
43681;BME280;29281;50.356;30.894;2023-05-17T00:43:29;100194.17;;;17.86;57.27
43681;BME280;29281;50.356;30.894;2023-05-17T00:44:33;100191.78;;;17.83;57.18
43681;BME280;29281;50.356;30.894;2023-05-17T00:45:36;100198.70;;;17.85;57.29
43681;BME280;29281;50.356;30.894;2023-05-17T00:46:40;100190.48;;;17.87;57.07
43681;BME280;29281;50.356;30.894;2023-05-17T00:47:44;100196.53;;;17.89;57.29
43681;BME280;29281;50.356;30.894;2023-05-17T00:48:47;100195.86;;;17.87;56.77
43681;BME280;29281;50.356;30.894;2023-05-17T00:49:51;100200.91;;;17.90;57.11
43681;BME280;29281;50.356;30.894;2023-05-17T00:50:55;100192.16;;;17.88;57.29
43681;BME280;29281;50.356;30.894;2023-05-17T00:51:58;100199.91;;;17.91;57.12
43681;BME280;29281;50.356;30.894;2023-05-17T00:53:03;100201.86;;;17.99;56.88
43681;BME280;29281;50.356;30.894;2023-05-17T00:54:08;100208.08;;;17.99;57.15
43681;BME280;29281;50.356;30.894;2023-05-17T00:55:13;100204.99;;;17.94;56.69
43681;BME280;29281;50.356;30.894;2023-05-17T00:56:21;100201.75;;;17.90;57.03
43681;BME280;29281;50.356;30.894;2023-05-17T00:57:22;100195.23;;;17.93;57.23
43681;BME280;29281;50.356;30.894;2023-05-17T00:58:30;100203.30;;;17.93;57.00
43681;BME280;29281;50.356;30.894;2023-05-17T00:59:34;100197.08;;;17.92;56.75
43681;BME280;29281;50.356;30.894;2023-05-17T01:00:39;100189.86;;;17.93;57.02
43681;BME280;29281;50.356;30.894;2023-05-17T01:01:43;100200.32;;;17.96;57.30
43681;BME280;29281;50.356;30.894;2023-05-17T01:02:47;100199.33;;;17.97;56.89
43681;BME280;29281;50.356;30.894;2023-05-17T01:03:51;100192.70;;;17.91;57.05
43681;BME280;29281;50.356;30.894;2023-05-17T01:04:55;100197.08;;;17.92;57.18
43681;BME280;29281;50.356;30.894;2023-05-17T01:05:59;100197.93;;;17.93;56.95
43681;BME280;29281;50.356;30.894;2023-05-17T01:07:03;100200.02;;;17.99;56.71
43681;BME280;29281;50.356;30.894;2023-05-17T01:08:07;100203.41;;;18.01;57.16
43681;BME280;29281;50.356;30.894;2023-05-17T01:09:10;100199.87;;;18.01;57.40
43681;BME280;29281;50.356;30.894;2023-05-17T01:10:14;100192.48;;;18.03;57.16
43681;BME280;29281;50.356;30.894;2023-05-17T01:11:23;100196.19;;;18.02;57.22
43681;BME280;29281;50.356;30.894;2023-05-17T01:12:36;100197.41;;;18.07;57.03
43681;BME280;29281;50.356;30.894;2023-05-17T01:13:54;100194.87;;;18.06;56.84
43681;BME280;29281;50.356;30.894;2023-05-17T01:18:45;100202.41;;;18.02;56.76
43681;BME280;29281;50.356;30.894;2023-05-17T01:21:18;100205.25;;;18.01;57.22
43681;BME280;29281;50.356;30.894;2023-05-17T01:23:58;100205.62;;;18.06;56.99
43681;BME280;29281;50.356;30.894;2023-05-17T01:27:38;100209.30;;;18.05;57.00
43681;BME280;29281;50.356;30.894;2023-05-17T01:28:44;100206.31;;;18.08;57.12
43681;BME280;29281;50.356;30.894;2023-05-17T01:29:48;100204.07;;;18.03;57.12
43681;BME280;29281;50.356;30.894;2023-05-17T01:30:52;100203.23;;;18.03;57.31
43681;BME280;29281;50.356;30.894;2023-05-17T01:31:56;100201.56;;;18.02;57.71
43681;BME280;29281;50.356;30.894;2023-05-17T01:33:00;100206.94;;;18.02;57.56
43681;BME280;29281;50.356;30.894;2023-05-17T01:35:19;100202.63;;;18.09;57.54
43681;BME280;29281;50.356;30.894;2023-05-17T01:36:23;100199.62;;;17.94;57.70
43681;BME280;29281;50.356;30.894;2023-05-17T01:37:27;100206.98;;;17.92;57.84
43681;BME280;29281;50.356;30.894;2023-05-17T01:38:29;100203.74;;;17.88;58.25
43681;BME280;29281;50.356;30.894;2023-05-17T01:39:34;100213.82;;;17.86;58.17
43681;BME280;29281;50.356;30.894;2023-05-17T01:40:45;100203.22;;;17.85;58.26
43681;BME280;29281;50.356;30.894;2023-05-17T01:43:09;100207.75;;;17.84;58.29
43681;BME280;29281;50.356;30.894;2023-05-17T01:44:23;100213.13;;;17.84;58.52
43681;BME280;29281;50.356;30.894;2023-05-17T01:46:40;100204.44;;;17.90;58.85
43681;BME280;29281;50.356;30.894;2023-05-17T01:49:26;100201.53;;;17.84;59.05
43681;BME280;29281;50.356;30.894;2023-05-17T01:50:29;100201.67;;;17.82;59.02
43681;BME280;29281;50.356;30.894;2023-05-17T01:51:36;100202.23;;;17.86;58.80
43681;BME280;29281;50.356;30.894;2023-05-17T01:52:47;100192.48;;;17.85;58.51
43681;BME280;29281;50.356;30.894;2023-05-17T01:53:56;100203.52;;;17.82;58.96
43681;BME280;29281;50.356;30.894;2023-05-17T01:55:09;100199.98;;;17.81;58.62
43681;BME280;29281;50.356;30.894;2023-05-17T01:56:16;100204.52;;;17.81;58.75
43681;BME280;29281;50.356;30.894;2023-05-17T01:57:21;100198.14;;;17.82;58.82
43681;BME280;29281;50.356;30.894;2023-05-17T01:58:30;100206.91;;;17.84;58.75
43681;BME280;29281;50.356;30.894;2023-05-17T01:59:37;100202.67;;;17.81;59.50
43681;BME280;29281;50.356;30.894;2023-05-17T02:00:41;100211.72;;;17.80;59.34
43681;BME280;29281;50.356;30.894;2023-05-17T02:01:44;100203.66;;;17.80;58.94
43681;BME280;29281;50.356;30.894;2023-05-17T02:02:49;100209.12;;;17.88;58.60
43681;BME280;29281;50.356;30.894;2023-05-17T02:03:54;100208.45;;;17.86;58.71
43681;BME280;29281;50.356;30.894;2023-05-17T02:05:00;100201.83;;;17.81;59.30
43681;BME280;29281;50.356;30.894;2023-05-17T02:06:05;100207.20;;;17.81;59.25
43681;BME280;29281;50.356;30.894;2023-05-17T02:07:08;100208.48;;;17.77;59.23
43681;BME280;29281;50.356;30.894;2023-05-17T02:08:11;100204.52;;;17.81;59.40
43681;BME280;29281;50.356;30.894;2023-05-17T02:09:14;100201.97;;;17.79;58.97
43681;BME280;29281;50.356;30.894;2023-05-17T02:10:18;100208.05;;;17.81;59.16
43681;BME280;29281;50.356;30.894;2023-05-17T02:11:24;100210.03;;;17.79;59.38
43681;BME280;29281;50.356;30.894;2023-05-17T02:12:28;100209.04;;;17.80;59.28
43681;BME280;29281;50.356;30.894;2023-05-17T02:13:33;100210.03;;;17.79;60.07
43681;BME280;29281;50.356;30.894;2023-05-17T02:14:36;100211.72;;;17.80;59.86
43681;BME280;29281;50.356;30.894;2023-05-17T02:16:49;100209.12;;;17.88;58.69
43681;BME280;29281;50.356;30.894;2023-05-17T02:17:52;100212.80;;;17.87;59.81
43681;BME280;29281;50.356;30.894;2023-05-17T02:18:55;100211.80;;;17.88;59.39
43681;BME280;29281;50.356;30.894;2023-05-17T02:19:59;100204.36;;;17.82;59.46
43681;BME280;29281;50.356;30.894;2023-05-17T02:21:03;100214.27;;;17.82;59.21
43681;BME280;29281;50.356;30.894;2023-05-17T02:22:11;100215.95;;;17.83;59.10
43681;BME280;29281;50.356;30.894;2023-05-17T02:23:14;100213.97;;;17.85;58.73
43681;BME280;29281;50.356;30.894;2023-05-17T02:24:19;100220.63;;;17.81;59.19
43681;BME280;29281;50.356;30.894;2023-05-17T02:25:23;100216.95;;;17.82;59.38
43681;BME280;29281;50.356;30.894;2023-05-17T02:26:32;100216.66;;;17.85;59.47
43681;BME280;29281;50.356;30.894;2023-05-17T02:27:34;100212.65;;;17.89;59.21
43681;BME280;29281;50.356;30.894;2023-05-17T02:28:37;100205.14;;;17.92;59.33
43681;BME280;29281;50.356;30.894;2023-05-17T02:29:42;100210.37;;;17.94;58.82
43681;BME280;29281;50.356;30.894;2023-05-17T02:30:48;100209.81;;;17.90;58.81
43681;BME280;29281;50.356;30.894;2023-05-17T02:31:54;100212.80;;;17.87;58.62
43681;BME280;29281;50.356;30.894;2023-05-17T02:32:58;100213.20;;;17.92;58.51
43681;BME280;29281;50.356;30.894;2023-05-17T02:34:03;100212.61;;;17.99;58.51
43681;BME280;29281;50.356;30.894;2023-05-17T02:35:07;100209.92;;;17.99;58.31
43681;BME280;29281;50.356;30.894;2023-05-17T02:36:11;100209.77;;;18.00;58.43
43681;BME280;29281;50.356;30.894;2023-05-17T02:37:15;100216.84;;;18.01;58.56
43681;BME280;29281;50.356;30.894;2023-05-17T02:38:19;100226.48;;;17.94;58.48
43681;BME280;29281;50.356;30.894;2023-05-17T02:39:26;100215.30;;;17.99;58.61
43681;BME280;29281;50.356;30.894;2023-05-17T02:40:33;100225.20;;;17.98;58.86
43681;BME280;29281;50.356;30.894;2023-05-17T02:41:37;100226.74;;;18.01;59.15
43681;BME280;29281;50.356;30.894;2023-05-17T02:42:41;100230.94;;;18.03;58.84
43681;BME280;29281;50.356;30.894;2023-05-17T02:43:44;100219.13;;;17.96;59.23
43681;BME280;29281;50.356;30.894;2023-05-17T02:44:48;100224.20;;;17.99;58.57
43681;BME280;29281;50.356;30.894;2023-05-17T02:45:56;100225.49;;;17.95;59.84
43681;BME280;29281;50.356;30.894;2023-05-17T02:46:59;100226.08;;;17.89;59.98
43681;BME280;29281;50.356;30.894;2023-05-17T02:48:04;100226.70;;;17.83;59.78
43681;BME280;29281;50.356;30.894;2023-05-17T02:49:08;100235.61;;;17.83;59.80
43681;BME280;29281;50.356;30.894;2023-05-17T02:50:13;100232.92;;;17.83;59.91
43681;BME280;29281;50.356;30.894;2023-05-17T02:51:18;100233.80;;;17.74;60.57
43681;BME280;29281;50.356;30.894;2023-05-17T02:52:22;100238.59;;;17.80;60.17
43681;BME280;29281;50.356;30.894;2023-05-17T02:53:25;100234.91;;;17.81;60.35
43681;BME280;29281;50.356;30.894;2023-05-17T02:54:29;100234.00;;;17.90;59.61
43681;BME280;29281;50.356;30.894;2023-05-17T02:55:31;100233.15;;;17.90;60.04
43681;BME280;29281;50.356;30.894;2023-05-17T02:56:34;100232.63;;;17.86;60.20
43681;BME280;29281;50.356;30.894;2023-05-17T02:57:38;100233.15;;;17.90;60.11
43681;BME280;29281;50.356;30.894;2023-05-17T02:58:41;100231.16;;;17.92;60.16
43681;BME280;29281;50.356;30.894;2023-05-17T02:59:45;100232.85;;;17.93;59.62
43681;BME280;29281;50.356;30.894;2023-05-17T03:00:49;100239.77;;;17.96;59.83
43681;BME280;29281;50.356;30.894;2023-05-17T03:01:55;100235.66;;;18.01;60.10
43681;BME280;29281;50.356;30.894;2023-05-17T03:02:59;100238.63;;;17.98;59.80
43681;BME280;29281;50.356;30.894;2023-05-17T03:04:06;100235.17;;;18.06;59.72
43681;BME280;29281;50.356;30.894;2023-05-17T03:05:13;100233.73;;;18.11;59.91
43681;BME280;29281;50.356;30.894;2023-05-17T03:06:19;100236.72;;;18.08;59.71
43681;BME280;29281;50.356;30.894;2023-05-17T03:07:25;100233.73;;;18.11;59.86
43681;BME280;29281;50.356;30.894;2023-05-17T03:08:32;100226.67;;;18.10;59.70
43681;BME280;29281;50.356;30.894;2023-05-17T03:09:37;100240.41;;;18.07;59.49
43681;BME280;29281;50.356;30.894;2023-05-17T03:10:40;100236.42;;;18.11;59.93
43681;BME280;29281;50.356;30.894;2023-05-17T03:11:45;100233.44;;;18.14;59.52
43681;BME280;29281;50.356;30.894;2023-05-17T03:12:51;100237.05;;;18.23;59.68
43681;BME280;29281;50.356;30.894;2023-05-17T03:13:56;100240.87;;;18.20;58.18
43681;BME280;29281;50.356;30.894;2023-05-17T03:15:01;100240.98;;;18.28;58.90
43681;BME280;29281;50.356;30.894;2023-05-17T03:16:06;100249.89;;;18.29;58.67
43681;BME280;29281;50.356;30.894;2023-05-17T03:17:11;100242.89;;;18.36;59.04
43681;BME280;29281;50.356;30.894;2023-05-17T03:18:16;100241.59;;;18.40;58.84
43681;BME280;29281;50.356;30.894;2023-05-17T03:19:29;100245.97;;;18.41;58.62
43681;BME280;29281;50.356;30.894;2023-05-17T03:20:33;100240.45;;;18.43;58.29
43681;BME280;29281;50.356;30.894;2023-05-17T03:21:38;100246.97;;;18.40;58.20
43681;BME280;29281;50.356;30.894;2023-05-17T03:22:42;100238.75;;;18.42;58.51
43681;BME280;29281;50.356;30.894;2023-05-17T03:23:46;100242.29;;;18.42;57.96
43681;BME280;29281;50.356;30.894;2023-05-17T03:24:50;100245.28;;;18.39;58.47
43681;BME280;29281;50.356;30.894;2023-05-17T03:25:55;100241.50;;;18.50;58.67
43681;BME280;29281;50.356;30.894;2023-05-17T03:27:00;100252.23;;;18.59;58.11
43681;BME280;29281;50.356;30.894;2023-05-17T03:28:02;100249.06;;;18.64;57.77
43681;BME280;29281;50.356;30.894;2023-05-17T03:29:08;100246.70;;;18.61;57.97
43681;BME280;29281;50.356;30.894;2023-05-17T03:30:13;100252.44;;;18.48;58.04
43681;BME280;29281;50.356;30.894;2023-05-17T03:31:16;100248.73;;;18.49;58.20
43681;BME280;29281;50.356;30.894;2023-05-17T03:32:20;100248.81;;;18.57;57.81
43681;BME280;29281;50.356;30.894;2023-05-17T03:33:22;100247.40;;;18.63;57.99
43681;BME280;29281;50.356;30.894;2023-05-17T03:34:25;100247.30;;;18.73;57.43
43681;BME280;29281;50.356;30.894;2023-05-17T03:35:27;100254.22;;;18.75;57.07
43681;BME280;29281;50.356;30.894;2023-05-17T03:36:36;100258.45;;;18.78;57.29
43681;BME280;29281;50.356;30.894;2023-05-17T03:37:42;100264.05;;;18.84;57.29
43681;BME280;29281;50.356;30.894;2023-05-17T03:38:45;100263.59;;;18.89;56.88
43681;BME280;29281;50.356;30.894;2023-05-17T03:39:49;100261.09;;;18.95;56.72
43681;BME280;29281;50.356;30.894;2023-05-17T03:40:53;100258.80;;;19.01;56.09
43681;BME280;29281;50.356;30.894;2023-05-17T03:41:57;100261.33;;;19.02;56.16
43681;BME280;29281;50.356;30.894;2023-05-17T03:43:01;100259.53;;;19.11;56.51
43681;BME280;29281;50.356;30.894;2023-05-17T03:44:05;100258.17;;;19.07;56.22
43681;BME280;29281;50.356;30.894;2023-05-17T03:45:11;100261.91;;;19.14;56.06
43681;BME280;29281;50.356;30.894;2023-05-17T03:46:15;100265.68;;;19.21;55.98
43681;BME280;29281;50.356;30.894;2023-05-17T03:47:23;100270.75;;;19.24;55.90
43681;BME280;29281;50.356;30.894;2023-05-17T03:48:28;100268.22;;;19.22;55.27
43681;BME280;29281;50.356;30.894;2023-05-17T03:49:37;100270.06;;;19.22;55.04
43681;BME280;29281;50.356;30.894;2023-05-17T03:50:41;100274.95;;;19.26;55.26
43681;BME280;29281;50.356;30.894;2023-05-17T03:51:44;100274.21;;;19.42;55.23
43681;BME280;29281;50.356;30.894;2023-05-17T03:52:48;100276.17;;;19.32;54.96
43681;BME280;29281;50.356;30.894;2023-05-17T03:53:56;100279.28;;;19.45;55.38
43681;BME280;29281;50.356;30.894;2023-05-17T03:55:00;100282.45;;;19.41;54.57
43681;BME280;29281;50.356;30.894;2023-05-17T03:56:04;100283.30;;;19.41;55.47
43681;BME280;29281;50.356;30.894;2023-05-17T03:57:10;100281.29;;;19.43;54.94
43681;BME280;29281;50.356;30.894;2023-05-17T03:58:14;100282.30;;;19.42;54.39
43681;BME280;29281;50.356;30.894;2023-05-17T03:59:17;100275.91;;;19.43;54.63
43681;BME280;29281;50.356;30.894;2023-05-17T04:00:22;100280.27;;;19.62;53.96
43681;BME280;29281;50.356;30.894;2023-05-17T04:01:27;100280.79;;;19.40;54.25
43681;BME280;29281;50.356;30.894;2023-05-17T04:02:30;100284.08;;;19.51;54.02
43681;BME280;29281;50.356;30.894;2023-05-17T04:03:33;100283.83;;;19.45;54.39
43681;BME280;29281;50.356;30.894;2023-05-17T04:04:40;100281.83;;;19.47;54.68
43681;BME280;29281;50.356;30.894;2023-05-17T04:05:45;100285.36;;;19.47;54.30
43681;BME280;29281;50.356;30.894;2023-05-17T04:06:52;100286.81;;;19.59;55.01
43681;BME280;29281;50.356;30.894;2023-05-17T04:07:55;100281.82;;;19.73;54.22
43681;BME280;29281;50.356;30.894;2023-05-17T04:08:59;100285.66;;;19.96;53.23
43681;BME280;29281;50.356;30.894;2023-05-17T04:10:04;100293.80;;;20.12;52.69
43681;BME280;29281;50.356;30.894;2023-05-17T04:11:10;100289.42;;;20.19;52.70
43681;BME280;29281;50.356;30.894;2023-05-17T04:12:15;100289.94;;;20.15;52.98
43681;BME280;29281;50.356;30.894;2023-05-17T04:13:19;100286.35;;;20.06;52.63
43681;BME280;29281;50.356;30.894;2023-05-17T04:14:23;100288.05;;;20.07;52.89
43681;BME280;29281;50.356;30.894;2023-05-17T04:15:27;100280.33;;;20.20;53.38
43681;BME280;29281;50.356;30.894;2023-05-17T04:16:31;100283.56;;;20.32;52.92
43681;BME280;29281;50.356;30.894;2023-05-17T04:17:34;100286.16;;;20.42;52.86
43681;BME280;29281;50.356;30.894;2023-05-17T04:18:38;100287.30;;;20.31;52.97
43681;BME280;29281;50.356;30.894;2023-05-17T04:19:46;100290.19;;;20.38;52.91
43681;BME280;29281;50.356;30.894;2023-05-17T04:20:54;100292.56;;;20.49;52.88
43681;BME280;29281;50.356;30.894;2023-05-17T04:21:59;100291.08;;;20.54;52.67
43681;BME280;29281;50.356;30.894;2023-05-17T04:23:03;100299.52;;;20.59;52.26
43681;BME280;29281;50.356;30.894;2023-05-17T04:24:10;100298.84;;;20.65;51.64
43681;BME280;29281;50.356;30.894;2023-05-17T04:25:13;100289.87;;;20.49;51.23
43681;BME280;29281;50.356;30.894;2023-05-17T04:26:17;100290.19;;;20.38;52.12
43681;BME280;29281;50.356;30.894;2023-05-17T04:27:22;100297.48;;;20.45;51.68
43681;BME280;29281;50.356;30.894;2023-05-17T04:28:27;100294.42;;;20.48;51.93
43681;BME280;29281;50.356;30.894;2023-05-17T04:29:31;100299.97;;;20.39;51.62
43681;BME280;29281;50.356;30.894;2023-05-17T04:30:35;100298.44;;;20.36;51.90
43681;BME280;29281;50.356;30.894;2023-05-17T04:31:39;100292.24;;;20.44;52.45
43681;BME280;29281;50.356;30.894;2023-05-17T04:32:41;100301.18;;;20.44;51.54
43681;BME280;29281;50.356;30.894;2023-05-17T04:33:46;100299.69;;;20.58;51.68
43681;BME280;29281;50.356;30.894;2023-05-17T04:34:50;100302.91;;;20.61;52.23
43681;BME280;29281;50.356;30.894;2023-05-17T04:35:54;100304.92;;;20.59;52.23
43681;BME280;29281;50.356;30.894;2023-05-17T04:37:00;100296.98;;;20.58;51.90
43681;BME280;29281;50.356;30.894;2023-05-17T04:38:02;100299.00;;;20.56;52.06
43681;BME280;29281;50.356;30.894;2023-05-17T04:39:08;100305.08;;;20.66;52.27
43681;BME280;29281;50.356;30.894;2023-05-17T04:40:12;100310.45;;;20.50;51.72
43681;BME280;29281;50.356;30.894;2023-05-17T04:41:16;100307.45;;;20.61;51.37
43681;BME280;29281;50.356;30.894;2023-05-17T04:42:19;100307.97;;;20.73;51.85
43681;BME280;29281;50.356;30.894;2023-05-17T04:43:23;100315.90;;;20.82;51.65
43681;BME280;29281;50.356;30.894;2023-05-17T04:44:27;100306.95;;;20.82;51.29
43681;BME280;29281;50.356;30.894;2023-05-17T04:45:34;100311.51;;;20.81;51.05
43681;BME280;29281;50.356;30.894;2023-05-17T04:46:39;100309.16;;;20.86;50.58
43681;BME280;29281;50.356;30.894;2023-05-17T04:47:47;100315.56;;;20.93;51.14
43681;BME280;29281;50.356;30.894;2023-05-17T04:48:53;100304.10;;;20.99;51.01
43681;BME280;29281;50.356;30.894;2023-05-17T04:49:58;100314.56;;;20.86;50.34
43681;BME280;29281;50.356;30.894;2023-05-17T04:51:03;100316.77;;;20.91;50.89
43681;BME280;29281;50.356;30.894;2023-05-17T04:52:07;100307.81;;;20.98;51.50
43681;BME280;29281;50.356;30.894;2023-05-17T04:53:14;100311.36;;;20.99;50.70
43681;BME280;29281;50.356;30.894;2023-05-17T04:54:21;100319.80;;;21.04;50.77
43681;BME280;29281;50.356;30.894;2023-05-17T04:55:25;100317.93;;;20.96;50.06
43681;BME280;29281;50.356;30.894;2023-05-17T04:56:29;100319.95;;;20.86;50.13
43681;BME280;29281;50.356;30.894;2023-05-17T04:57:33;100320.78;;;20.70;50.21
43681;BME280;29281;50.356;30.894;2023-05-17T04:58:39;100325.00;;;20.81;50.30
43681;BME280;29281;50.356;30.894;2023-05-17T04:59:43;100322.50;;;20.88;50.13
43681;BME280;29281;50.356;30.894;2023-05-17T05:00:47;100319.13;;;21.02;50.07
43681;BME280;29281;50.356;30.894;2023-05-17T05:01:52;100320.32;;;21.08;49.69
43681;BME280;29281;50.356;30.894;2023-05-17T05:02:56;100324.86;;;21.15;49.09
43681;BME280;29281;50.356;30.894;2023-05-17T05:04:02;100332.33;;;21.21;49.41
43681;BME280;29281;50.356;30.894;2023-05-17T05:05:11;100327.91;;;21.04;49.47
43681;BME280;29281;50.356;30.894;2023-05-17T05:06:18;100329.42;;;21.15;49.51
43681;BME280;29281;50.356;30.894;2023-05-17T05:07:21;100330.11;;;21.25;49.45
43681;BME280;29281;50.356;30.894;2023-05-17T05:08:25;100327.75;;;21.30;50.13
43681;BME280;29281;50.356;30.894;2023-05-17T05:09:29;100319.66;;;21.38;49.58
43681;BME280;29281;50.356;30.894;2023-05-17T05:10:32;100325.88;;;21.47;49.88
43681;BME280;29281;50.356;30.894;2023-05-17T05:11:36;100324.36;;;21.44;49.36
43681;BME280;29281;50.356;30.894;2023-05-17T05:12:39;100330.41;;;21.54;48.93
43681;BME280;29281;50.356;30.894;2023-05-17T05:13:43;100329.40;;;21.55;49.83
43681;BME280;29281;50.356;30.894;2023-05-17T05:14:47;100324.16;;;21.62;49.09
43681;BME280;29281;50.356;30.894;2023-05-17T05:15:51;100332.78;;;21.65;49.00
43681;BME280;29281;50.356;30.894;2023-05-17T05:16:54;100333.08;;;21.79;49.60
43681;BME280;29281;50.356;30.894;2023-05-17T05:17:58;100331.22;;;21.71;49.11
43681;BME280;29281;50.356;30.894;2023-05-17T05:19:01;100329.36;;;21.80;49.08
43681;BME280;29281;50.356;30.894;2023-05-17T05:20:07;100338.78;;;21.92;49.50
43681;BME280;29281;50.356;30.894;2023-05-17T05:21:11;100335.23;;;21.91;48.80
43681;BME280;29281;50.356;30.894;2023-05-17T05:22:14;100337.96;;;21.99;49.20
43681;BME280;29281;50.356;30.894;2023-05-17T05:23:20;100325.75;;;22.03;49.13
43681;BME280;29281;50.356;30.894;2023-05-17T05:24:23;100325.86;;;22.18;50.53
43681;BME280;29281;50.356;30.894;2023-05-17T05:25:27;100334.30;;;22.23;48.73
43681;BME280;29281;50.356;30.894;2023-05-17T05:26:32;100333.03;;;22.42;48.92
43681;BME280;29281;50.356;30.894;2023-05-17T05:27:37;100327.65;;;22.34;48.02
43681;BME280;29281;50.356;30.894;2023-05-17T05:28:42;100330.33;;;22.42;48.25
43681;BME280;29281;50.356;30.894;2023-05-17T05:29:50;100340.80;;;22.45;47.24
43681;BME280;29281;50.356;30.894;2023-05-17T05:30:57;100336.95;;;22.62;47.98
43681;BME280;29281;50.356;30.894;2023-05-17T05:32:03;100332.84;;;22.74;47.61
43681;BME280;29281;50.356;30.894;2023-05-17T05:33:08;100329.78;;;22.77;47.42
43681;BME280;29281;50.356;30.894;2023-05-17T05:34:13;100335.73;;;22.73;47.53
43681;BME280;29281;50.356;30.894;2023-05-17T05:35:18;100336.04;;;22.78;47.36
43681;BME280;29281;50.356;30.894;2023-05-17T05:36:21;100339.98;;;22.67;47.72
43681;BME280;29281;50.356;30.894;2023-05-17T05:37:25;100333.51;;;22.76;47.11
43681;BME280;29281;50.356;30.894;2023-05-17T05:38:30;100339.02;;;22.91;47.43
43681;BME280;29281;50.356;30.894;2023-05-17T05:39:34;100335.47;;;22.91;47.48
43681;BME280;29281;50.356;30.894;2023-05-17T05:40:38;100331.97;;;23.05;47.30
43681;BME280;29281;50.356;30.894;2023-05-17T05:41:42;100341.30;;;23.02;46.24
43681;BME280;29281;50.356;30.894;2023-05-17T05:42:46;100335.27;;;23.15;46.96
43681;BME280;29281;50.356;30.894;2023-05-17T05:43:50;100343.98;;;23.25;47.32
43681;BME280;29281;50.356;30.894;2023-05-17T05:44:54;100349.70;;;23.07;45.45
43681;BME280;29281;50.356;30.894;2023-05-17T05:45:57;100348.52;;;22.87;46.01
43681;BME280;29281;50.356;30.894;2023-05-17T05:47:04;100352.23;;;23.09;45.90
43681;BME280;29281;50.356;30.894;2023-05-17T05:48:12;100352.41;;;23.07;44.51
43681;BME280;29281;50.356;30.894;2023-05-17T05:49:16;100352.23;;;23.09;45.21
43681;BME280;29281;50.356;30.894;2023-05-17T05:50:21;100352.67;;;23.21;44.97